Time;durP1;ratioP1;P1;durP2;ratioP2;P2;SDS_P1;SDS_P2;PMS_P1;PMS_P2;Temp;Humidity;BMP_temperature;BMP_pressure;BME280_temperature;BME280_humidity;BME280_pressure;Samples;Min_cycle;Max_cycle;Signal;HPM_P1;HPM_P2
2021/05/17 00:01:55;;;;;;;;;;;27.70;96.60;;;;;;1790190;79;20121;-91
2021/05/17 00:04:33;;;;;;;;;;;27.70;96.70;;;;;;1778578;79;20567;-90
2021/05/17 00:07:07;;;;;;;;;;;27.70;96.60;;;;;;1771528;81;20259;-91
2021/05/17 00:09:41;;;;;;;;;;;27.70;96.40;;;;;;1778285;80;20263;-89
2021/05/17 00:12:12;;;;;;;;;;;27.70;95.90;;;;;;1726539;82;20213;-89
2021/05/17 00:14:44;;;;;;;;;;;27.80;95.80;;;;;;1780533;80;20267;-90
2021/05/17 00:17:14;;;;;;;;;;;27.80;95.80;;;;;;1787691;80;20164;-91
2021/05/17 00:19:44;;;;;;;;;;;27.90;95.80;;;;;;1763540;79;20209;-90
2021/05/17 00:22:14;;;;;;;;;;;27.90;96.10;;;;;;1770178;80;20573;-90
2021/05/17 00:24:44;;;;;;;;;;;27.90;96.20;;;;;;1790159;80;20121;-90
2021/05/17 00:27:14;;;;;;;;;;;27.90;96.30;;;;;;1782085;80;20133;-90
2021/05/17 00:29:44;;;;;;;;;;;27.90;96.30;;;;;;1789559;80;20204;-91
2021/05/17 00:32:14;;;;;;;;;;;27.90;96.30;;;;;;1784399;80;20177;-90
2021/05/17 00:34:44;;;;;;;;;;;28.00;96.20;;;;;;1765208;80;20624;-91
2021/05/17 00:37:14;;;;;;;;;;;28.00;96.30;;;;;;1767930;80;20256;-91
2021/05/17 00:39:44;;;;;;;;;;;28.00;96.20;;;;;;1745710;81;20413;-90
2021/05/17 00:42:15;;;;;;;;;;;28.10;95.90;;;;;;1783213;80;20449;-90
2021/05/17 00:44:45;;;;;;;;;;;28.10;95.80;;;;;;1784576;79;20376;-89
2021/05/17 00:47:16;;;;;;;;;;;28.10;95.80;;;;;;1787389;79;20199;-91
2021/05/17 00:49:47;;;;;;;;;;;28.10;95.80;;;;;;1789673;79;20165;-90
2021/05/17 00:52:20;;;;;;;;;;;28.20;96.10;;;;;;1777387;80;20227;-90
2021/05/17 00:57:47;;;;;;;;;;;28.20;95.80;;;;;;1773679;79;20251;-90
2021/05/17 01:03:28;;;;;;;;;;;28.30;96.20;;;;;;1759983;80;20597;-91
2021/05/17 01:05:59;;;;;;;;;;;28.40;96.10;;;;;;1771643;79;20291;-88
2021/05/17 01:08:34;;;;;;;;;;;28.50;96.00;;;;;;1789140;78;20168;-92
2021/05/17 01:11:05;;;;;;;;;;;28.60;95.70;;;;;;1796601;79;20237;-94
2021/05/17 01:13:35;;;;;;;;;;;28.60;95.70;;;;;;1787853;79;20211;-95
2021/05/17 01:16:05;;;;;;;;;;;28.70;95.80;;;;;;1784549;79;20510;-92
2021/05/17 01:18:35;;;;;;;;;;;28.70;95.70;;;;;;1783194;80;20199;-91
2021/05/17 01:21:06;;;;;;;;;;;28.70;95.70;;;;;;1785163;79;20200;-92
2021/05/17 01:26:07;;;;;;;;;;;28.90;95.60;;;;;;1740725;81;20174;-90
2021/05/17 01:28:37;;;;;;;;;;;28.90;95.20;;;;;;1759150;80;20210;-91
2021/05/17 01:31:08;;;;;;;;;;;29.00;94.80;;;;;;1787305;80;20172;-91
2021/05/17 01:33:40;;;;;;;;;;;29.10;95.00;;;;;;1795677;78;20203;-94
2021/05/17 01:36:11;;;;;;;;;;;29.20;94.90;;;;;;1786363;79;20220;-93
2021/05/17 01:38:41;;;;;;;;;;;29.30;95.10;;;;;;1789605;80;20522;-90
2021/05/17 01:41:12;;;;;;;;;;;29.40;94.90;;;;;;1777992;80;20164;-94
2021/05/17 01:43:46;;;;;;;;;;;29.50;94.60;;;;;;1777936;79;20167;-91
2021/05/17 01:46:16;;;;;;;;;;;29.70;94.10;;;;;;1780284;79;20203;-91
2021/05/17 01:48:46;;;;;;;;;;;29.80;93.70;;;;;;1774970;79;20192;-90
2021/05/17 01:51:17;;;;;;;;;;;30.00;93.90;;;;;;1734418;81;20402;-91
2021/05/17 01:53:48;;;;;;;;;;;30.10;93.70;;;;;;1775556;80;20180;-89
2021/05/17 01:56:18;;;;;;;;;;;30.20;93.40;;;;;;1781128;78;20223;-91
2021/05/17 01:58:48;;;;;;;;;;;30.30;92.50;;;;;;1771445;79;20216;-91
2021/05/17 02:01:19;;;;;;;;;;;30.40;91.70;;;;;;1768588;79;20157;-91
2021/05/17 02:03:51;;;;;;;;;;;30.50;91.90;;;;;;1764197;79;20199;-89
2021/05/17 02:06:31;;;;;;;;;;;30.60;91.70;;;;;;1802762;78;20278;-90
2021/05/17 02:08:59;;;;;;;;;;;30.70;91.60;;;;;;1785040;79;20264;-91
2021/05/17 02:11:38;;;;;;;;;;;30.90;91.80;;;;;;1788899;78;20215;-88
2021/05/17 02:14:13;;;;;;;;;;;31.00;91.80;;;;;;1789052;79;20439;-89
2021/05/17 02:16:43;;;;;;;;;;;31.10;91.00;;;;;;1774942;79;20176;-90
2021/05/17 02:19:13;;;;;;;;;;;31.20;90.70;;;;;;1783973;79;20227;-89
2021/05/17 02:21:43;;;;;;;;;;;31.30;90.70;;;;;;1774890;77;20122;-90
2021/05/17 02:24:13;;;;;;;;;;;31.40;90.70;;;;;;1774709;79;20256;-91
2021/05/17 02:26:59;;;;;;;;;;;31.50;90.10;;;;;;1776403;80;20250;-90
2021/05/17 02:29:32;;;;;;;;;;;31.60;89.40;;;;;;1783649;79;20369;-86
2021/05/17 02:32:05;;;;;;;;;;;31.70;88.60;;;;;;1771043;80;20250;-87
2021/05/17 02:34:43;;;;;;;;;;;31.70;88.60;;;;;;1772506;79;20125;-91
2021/05/17 02:37:13;;;;;;;;;;;31.80;88.70;;;;;;1727004;81;20167;-88
2021/05/17 02:39:43;;;;;;;;;;;32.00;88.10;;;;;;1770574;79;20173;-88
2021/05/17 02:42:15;;;;;;;;;;;32.10;87.60;;;;;;1771877;80;20201;-89
2021/05/17 02:44:45;;;;;;;;;;;32.20;86.20;;;;;;1786198;80;20161;-90
2021/05/17 02:47:15;;;;;;;;;;;32.30;85.60;;;;;;1737164;81;20181;-90
2021/05/17 02:49:45;;;;;;;;;;;32.40;85.70;;;;;;1716955;82;20213;-90
2021/05/17 02:52:15;;;;;;;;;;;32.40;85.20;;;;;;1727639;82;20187;-89
2021/05/17 02:54:46;;;;;;;;;;;32.60;84.90;;;;;;1743687;80;20118;-89
2021/05/17 02:57:26;;;;;;;;;;;32.60;84.10;;;;;;1786928;79;20138;-91
2021/05/17 02:59:52;;;;;;;;;;;32.60;83.90;;;;;;1769477;80;20145;-92
2021/05/17 03:02:28;;;;;;;;;;;32.70;81.90;;;;;;1777763;80;20202;-91
2021/05/17 03:04:58;;;;;;;;;;;32.80;84.10;;;;;;1778054;80;20196;-89
2021/05/17 03:07:29;;;;;;;;;;;32.80;83.20;;;;;;1770580;79;20163;-92
2021/05/17 03:10:00;;;;;;;;;;;33.00;81.30;;;;;;1780669;79;20267;-89
2021/05/17 03:12:30;;;;;;;;;;;33.10;79.50;;;;;;1732212;81;20597;-87
2021/05/17 03:15:00;;;;;;;;;;;33.10;80.30;;;;;;1741870;82;20292;-89
2021/05/17 03:17:30;;;;;;;;;;;33.20;80.50;;;;;;1744761;81;20170;-88
2021/05/17 03:20:00;;;;;;;;;;;33.30;79.50;;;;;;1737562;81;20195;-89
2021/05/17 03:22:34;;;;;;;;;;;33.30;79.50;;;;;;1753874;81;20224;-88
2021/05/17 03:25:05;;;;;;;;;;;33.20;79.50;;;;;;1776488;80;20137;-89
2021/05/17 03:27:46;;;;;;;;;;;33.30;78.70;;;;;;1791486;79;20280;-93
2021/05/17 03:30:20;;;;;;;;;;;33.50;77.70;;;;;;1766567;78;20259;-89
2021/05/17 03:32:50;;;;;;;;;;;33.60;76.30;;;;;;1782125;80;20216;-79
2021/05/17 03:35:19;;;;;;;;;;;;;;;;;;1778746;79;20254;-77
2021/05/17 03:37:49;;;;;;;;;;;33.70;74.60;;;;;;1767073;80;20196;-79
2021/05/17 03:40:19;;;;;;;;;;;33.80;75.30;;;;;;1774848;80;20179;-78
2021/05/17 03:42:50;;;;;;;;;;;33.90;74.00;;;;;;1726987;81;20479;-78
2021/05/17 03:45:19;;;;;;;;;;;33.90;74.00;;;;;;1724716;81;20220;-81
2021/05/17 03:47:49;;;;;;;;;;;33.90;73.70;;;;;;1724914;82;20220;-78
2021/05/17 03:50:19;;;;;;;;;;;34.00;77.10;;;;;;1699849;83;20142;-78
2021/05/17 03:52:49;;;;;;;;;;;34.10;71.40;;;;;;1728304;81;20173;-78
2021/05/17 03:55:19;;;;;;;;;;;34.10;71.80;;;;;;1779714;79;20248;-78
2021/05/17 03:57:49;;;;;;;;;;;34.00;71.60;;;;;;1747051;80;20215;-78
2021/05/17 04:00:19;;;;;;;;;;;33.90;71.00;;;;;;1750194;80;20569;-79
2021/05/17 04:02:49;;;;;;;;;;;33.80;72.10;;;;;;1778227;80;20302;-79
2021/05/17 04:05:31;;;;;;;;;;;33.80;71.10;;;;;;1741721;81;20201;-78
2021/05/17 04:15:24;;;;;;;;;;;33.70;71.90;;;;;;1787603;78;20190;-78
2021/05/17 04:17:54;;;;;;;;;;;33.80;71.30;;;;;;1775873;79;20172;-78
2021/05/17 04:20:24;;;;;;;;;;;33.90;70.80;;;;;;1787175;80;20181;-79
2021/05/17 04:22:53;;;;;;;;;;;34.20;73.10;;;;;;1774151;80;20179;-80
2021/05/17 04:25:24;;;;;;;;;;;34.40;69.50;;;;;;1770625;79;20219;-79
2021/05/17 04:27:53;;;;;;;;;;;34.40;68.30;;;;;;1780819;79;20201;-78
2021/05/17 04:30:23;;;;;;;;;;;34.40;68.30;;;;;;1779541;80;20522;-79
2021/05/17 04:32:53;;;;;;;;;;;34.50;67.70;;;;;;1779184;80;20219;-79
2021/05/17 04:35:23;;;;;;;;;;;34.60;67.30;;;;;;1783354;79;20496;-78
2021/05/17 04:37:53;;;;;;;;;;;34.70;67.20;;;;;;1778501;80;20154;-79
2021/05/17 04:40:22;;;;;;;;;;;34.80;67.50;;;;;;1791655;79;20291;-78
2021/05/17 04:42:52;;;;;;;;;;;34.90;67.00;;;;;;1789954;79;20239;-78
2021/05/17 04:45:24;;;;;;;;;;;;;;;;;;1786341;79;20191;-78
2021/05/17 04:47:53;;;;;;;;;;;35.20;69.90;;;;;;1777805;79;20255;-78
2021/05/17 04:50:23;;;;;;;;;;;35.30;67.00;;;;;;1777736;79;20173;-78
2021/05/17 04:52:53;;;;;;;;;;;35.40;70.00;;;;;;1774971;79;20210;-79
2021/05/17 04:55:23;;;;;;;;;;;35.40;69.40;;;;;;1788496;79;20180;-78
2021/05/17 04:57:52;;;;;;;;;;;35.40;66.20;;;;;;1790607;79;20231;-78
2021/05/17 05:00:23;;;;;;;;;;;35.50;69.80;;;;;;1791319;78;20188;-81
2021/05/17 05:02:53;;;;;;;;;;;35.60;66.10;;;;;;1765676;78;20518;-79
2021/05/17 05:05:23;;;;;;;;;;;35.60;64.90;;;;;;1773501;79;20751;-80
2021/05/17 05:07:53;;;;;;;;;;;35.60;64.40;;;;;;1797101;79;20261;-80
2021/05/17 05:10:23;;;;;;;;;;;35.60;63.30;;;;;;1788922;78;20247;-78
2021/05/17 05:12:53;;;;;;;;;;;35.70;62.60;;;;;;1779221;80;20467;-78
2021/05/17 05:15:23;;;;;;;;;;;35.70;60.90;;;;;;1785110;80;20472;-77
2021/05/17 05:17:53;;;;;;;;;;;35.70;62.20;;;;;;1781098;79;20205;-77
2021/05/17 05:20:23;;;;;;;;;;;35.80;61.00;;;;;;1780929;79;20188;-77
2021/05/17 05:22:53;;;;;;;;;;;35.80;61.00;;;;;;1775227;79;20322;-78
2021/05/17 05:25:24;;;;;;;;;;;35.80;61.20;;;;;;1774448;80;20348;-78
2021/05/17 05:27:56;;;;;;;;;;;35.70;60.30;;;;;;1781425;79;20224;-78
2021/05/17 05:33:07;;;;;;;;;;;35.60;58.80;;;;;;1770547;80;20443;-79
2021/05/17 05:35:27;;;;;;;;;;;35.60;59.30;;;;;;1773697;80;20223;-78
2021/05/17 05:37:57;;;;;;;;;;;35.70;59.20;;;;;;1772183;80;20472;-78
2021/05/17 05:40:26;;;;;;;;;;;35.70;61.70;;;;;;1768088;80;20266;-78
2021/05/17 05:42:57;;;;;;;;;;;35.80;62.30;;;;;;1742163;81;20271;-79
2021/05/17 05:45:28;;;;;;;;;;;35.90;58.40;;;;;;1755281;81;20492;-78
2021/05/17 05:47:58;;;;;;;;;;;35.90;56.90;;;;;;1779185;79;20227;-77
2021/05/17 05:50:28;;;;;;;;;;;36.00;57.60;;;;;;1790448;79;20531;-78
2021/05/17 05:52:58;;;;;;;;;;;36.00;58.60;;;;;;1776300;80;20224;-78
2021/05/17 05:55:27;;;;;;;;;;;36.00;60.40;;;;;;1791537;79;20494;-78
2021/05/17 05:57:57;;;;;;;;;;;35.90;59.90;;;;;;1734988;81;20212;-77
2021/05/17 06:00:30;;;;;;;;;;;35.80;59.70;;;;;;1752272;81;20223;-77
2021/05/17 06:02:58;;;;;;;;;;;35.80;59.90;;;;;;1740572;82;20181;-78
2021/05/17 06:05:29;;;;;;;;;;;35.80;60.00;;;;;;1766139;80;20137;-77
2021/05/17 06:08:00;;;;;;;;;;;35.90;59.50;;;;;;1769455;80;20463;-77
2021/05/17 06:10:31;;;;;;;;;;;36.00;57.50;;;;;;1777469;80;20170;-76
2021/05/17 06:13:02;;;;;;;;;;;36.00;56.50;;;;;;1794783;79;20205;-77
2021/05/17 06:15:31;;;;;;;;;;;35.90;58.50;;;;;;1786960;79;20173;-76
2021/05/17 06:18:02;;;;;;;;;;;35.80;58.50;;;;;;1790658;80;20606;-77
2021/05/17 06:20:32;;;;;;;;;;;35.80;58.60;;;;;;1773605;79;20201;-78
2021/05/17 06:23:02;;;;;;;;;;;35.90;59.90;;;;;;1768911;80;20521;-78
2021/05/17 06:25:33;;;;;;;;;;;35.90;56.90;;;;;;1762876;80;20171;-78
2021/05/17 06:28:04;;;;;;;;;;;35.90;57.60;;;;;;1781055;80;20169;-78
2021/05/17 06:30:46;;;;;;;;;;;35.90;58.70;;;;;;1762123;80;20244;-77
2021/05/17 06:33:06;;;;;;;;;;;35.80;57.90;;;;;;1748889;80;20237;-78
2021/05/17 06:35:40;;;;;;;;;;;35.70;57.30;;;;;;1789448;80;20491;-78
2021/05/17 06:38:08;;;;;;;;;;;35.60;58.30;;;;;;1764714;80;20176;-78
2021/05/17 06:40:38;;;;;;;;;;;35.40;58.10;;;;;;1779353;79;20469;-77
2021/05/17 06:43:09;;;;;;;;;;;35.30;58.60;;;;;;1781195;80;20190;-78
2021/05/17 06:45:39;;;;;;;;;;;35.30;59.00;;;;;;1769896;80;20406;-77
2021/05/17 06:48:09;;;;;;;;;;;35.30;58.90;;;;;;1757261;80;20238;-77
2021/05/17 06:50:40;;;;;;;;;;;35.30;58.70;;;;;;1782561;80;20160;-77
2021/05/17 06:53:10;;;;;;;;;;;35.30;60.90;;;;;;1748140;80;20209;-76
2021/05/17 06:55:47;;;;;;;;;;;35.30;60.00;;;;;;1770624;80;20264;-77
2021/05/17 06:58:17;;;;;;;;;;;35.40;58.60;;;;;;1776951;80;20220;-78
2021/05/17 07:00:43;;;;;;;;;;;35.50;58.40;;;;;;1784494;79;20194;-77
2021/05/17 07:03:12;;;;;;;;;;;35.60;60.00;;;;;;1777299;79;20133;-77
2021/05/17 07:05:42;;;;;;;;;;;35.60;58.50;;;;;;1764357;80;20204;-78
2021/05/17 07:13:15;;;;;;;;;;;35.80;60.60;;;;;;1771857;80;20214;-76
2021/05/17 07:15:45;;;;;;;;;;;35.80;59.00;;;;;;1779824;80;20224;-77
2021/05/17 07:18:15;;;;;;;;;;;35.80;58.00;;;;;;1768949;80;20189;-78
2021/05/17 07:25:49;;;;;;;;;;;35.80;57.70;;;;;;1786208;78;20647;-76
2021/05/17 07:28:19;;;;;;;;;;;35.80;59.30;;;;;;1795685;78;20212;-77
2021/05/17 07:30:50;;;;;;;;;;;35.80;57.80;;;;;;1790606;79;20128;-77
2021/05/17 07:33:20;;;;;;;;;;;35.70;57.70;;;;;;1794191;80;20201;-77
2021/05/17 07:35:50;;;;;;;;;;;35.70;57.70;;;;;;1775216;79;20192;-77
2021/05/17 07:38:23;;;;;;;;;;;35.60;58.00;;;;;;1780847;79;20286;-77
2021/05/17 07:40:52;;;;;;;;;;;35.60;56.70;;;;;;1773560;79;20218;-77
2021/05/17 07:43:22;;;;;;;;;;;35.60;56.80;;;;;;1767276;79;20601;-77
2021/05/17 07:45:53;;;;;;;;;;;35.70;57.40;;;;;;1716429;83;20241;-76
2021/05/17 07:48:23;;;;;;;;;;;35.70;58.80;;;;;;1789647;80;20146;-76
2021/05/17 07:50:53;;;;;;;;;;;35.80;57.90;;;;;;1788005;79;20228;-77
2021/05/17 07:53:23;;;;;;;;;;;35.80;58.00;;;;;;1782456;79;20383;-76
2021/05/17 07:55:53;;;;;;;;;;;35.90;55.70;;;;;;1775918;80;20549;-77
2021/05/17 07:58:23;;;;;;;;;;;36.00;56.40;;;;;;1802859;79;20117;-78
2021/05/17 08:00:53;;;;;;;;;;;36.10;56.80;;;;;;1818019;78;20196;-78
2021/05/17 08:03:24;;;;;;;;;;;36.10;56.60;;;;;;1785424;80;20121;-78
2021/05/17 08:05:55;;;;;;;;;;;36.20;57.20;;;;;;1712810;82;20218;-78
2021/05/17 08:08:25;;;;;;;;;;;36.10;57.00;;;;;;1723259;83;20165;-78
2021/05/17 08:10:55;;;;;;;;;;;36.10;56.10;;;;;;1753182;81;20212;-78
2021/05/17 08:13:25;;;;;;;;;;;36.00;56.40;;;;;;1755336;81;20283;-78
2021/05/17 08:15:57;;;;;;;;;;;36.00;57.00;;;;;;1746308;80;20209;-78
2021/05/17 08:18:27;;;;;;;;;;;35.90;55.40;;;;;;1779146;80;20213;-78
2021/05/17 08:20:57;;;;;;;;;;;35.90;56.30;;;;;;1799284;79;20254;-78
2021/05/17 08:23:27;;;;;;;;;;;35.90;56.60;;;;;;1782821;79;20137;-78
2021/05/17 08:25:57;;;;;;;;;;;35.80;56.40;;;;;;1789747;78;20211;-78
2021/05/17 08:28:27;;;;;;;;;;;35.70;57.10;;;;;;1817547;78;20133;-77
2021/05/17 08:30:58;;;;;;;;;;;35.70;58.20;;;;;;1791851;79;20137;-78
2021/05/17 08:33:30;;;;;;;;;;;35.60;57.90;;;;;;1791893;79;20269;-79
2021/05/17 08:35:59;;;;;;;;;;;35.60;58.40;;;;;;1794399;78;20213;-80
2021/05/17 08:38:29;;;;;;;;;;;35.50;58.70;;;;;;1787380;79;20230;-79
2021/05/17 08:41:00;;;;;;;;;;;35.50;58.50;;;;;;1779995;79;20223;-80
2021/05/17 08:43:34;;;;;;;;;;;35.50;58.40;;;;;;1749330;80;20415;-80
2021/05/17 08:46:04;;;;;;;;;;;35.50;58.30;;;;;;1736632;81;20169;-79
2021/05/17 08:48:34;;;;;;;;;;;35.60;58.70;;;;;;1745117;82;20180;-80
2021/05/17 08:51:05;;;;;;;;;;;35.50;58.40;;;;;;1791128;79;20167;-81
2021/05/17 08:53:36;;;;;;;;;;;35.50;58.80;;;;;;1769101;80;20176;-78
2021/05/17 08:56:08;;;;;;;;;;;35.60;58.30;;;;;;1774322;79;20179;-78
2021/05/17 08:58:37;;;;;;;;;;;35.60;57.80;;;;;;1778156;79;20163;-79
2021/05/17 09:01:07;;;;;;;;;;;35.70;58.30;;;;;;1779172;79;20304;-79
2021/05/17 09:03:38;;;;;;;;;;;35.60;57.70;;;;;;1783890;79;20251;-79
2021/05/17 09:06:09;;;;;;;;;;;35.60;58.70;;;;;;1779953;80;20164;-79
2021/05/17 09:08:40;;;;;;;;;;;35.40;59.70;;;;;;1769750;80;20404;-78
2021/05/17 09:11:11;;;;;;;;;;;35.10;60.00;;;;;;1767811;80;20224;-78
2021/05/17 09:13:41;;;;;;;;;;;34.80;59.80;;;;;;1735945;81;20258;-78
2021/05/17 09:16:11;;;;;;;;;;;34.50;61.20;;;;;;1752215;81;20512;-78
2021/05/17 09:18:41;;;;;;;;;;;34.20;62.00;;;;;;1775796;79;20180;-85
2021/05/17 09:21:11;;;;;;;;;;;33.90;66.30;;;;;;1759623;81;20204;-85
2021/05/17 09:23:41;;;;;;;;;;;33.60;68.00;;;;;;1755911;80;20173;-85
2021/05/17 09:26:49;;;;;;;;;;;;;;;;;;;;;
2021/05/17 09:29:23;;;;;;;;;;;32.60;74.30;;;;;;1747299;80;20198;-85
2021/05/17 09:31:53;;;;;;;;;;;31.90;74.00;;;;;;1755145;80;20151;-85
2021/05/17 09:34:24;;;;;;;;;;;31.40;74.80;;;;;;1749912;81;20225;-85
2021/05/17 09:36:54;;;;;;;;;;;31.20;76.70;;;;;;1750658;81;20233;-84
2021/05/17 09:39:24;;;;;;;;;;;31.10;76.20;;;;;;1749187;80;20210;-84
2021/05/17 09:41:55;;;;;;;;;;;31.00;80.20;;;;;;1753042;80;20268;-81
2021/05/17 09:44:27;;;;;;;;;;;30.80;80.30;;;;;;1763910;80;20161;-85
2021/05/17 09:46:58;;;;;;;;;;;30.60;83.80;;;;;;1746717;80;20193;-83
2021/05/17 09:49:30;;;;;;;;;;;30.40;83.80;;;;;;1755253;80;20191;-84
2021/05/17 09:52:01;;;;;;;;;;;30.10;82.80;;;;;;1759625;80;20167;-84
2021/05/17 09:54:32;;;;;;;;;;;30.00;90.00;;;;;;1758901;80;20264;-84
2021/05/17 09:57:03;;;;;;;;;;;29.80;90.60;;;;;;1743274;81;20188;-84
2021/05/17 09:59:34;;;;;;;;;;;29.80;90.70;;;;;;1748700;81;20254;-86
2021/05/17 10:02:05;;;;;;;;;;;29.80;89.90;;;;;;1741411;81;20187;-84
2021/05/17 10:04:35;;;;;;;;;;;29.80;90.80;;;;;;1750765;81;20194;-85
2021/05/17 10:07:07;;;;;;;;;;;29.90;91.40;;;;;;1697866;83;20284;-83
2021/05/17 10:09:36;;;;;;;;;;;30.00;91.80;;;;;;1695629;85;20229;-83
2021/05/17 10:12:06;;;;;;;;;;;29.90;91.30;;;;;;1757885;80;20169;-84
2021/05/17 10:14:37;;;;;;;;;;;29.80;90.40;;;;;;1760495;81;20197;-84
2021/05/17 10:17:07;;;;;;;;;;;29.90;91.70;;;;;;1788319;80;20155;-84
2021/05/17 10:19:37;;;;;;;;;;;30.00;92.70;;;;;;1758827;81;20196;-84
2021/05/17 10:22:07;;;;;;;;;;;30.00;92.70;;;;;;1761568;81;20205;-84
2021/05/17 10:24:37;;;;;;;;;;;30.10;92.20;;;;;;1739760;80;20182;-84
2021/05/17 10:27:07;;;;;;;;;;;30.20;90.70;;;;;;1759746;80;20187;-84
2021/05/17 10:29:39;;;;;;;;;;;30.30;90.30;;;;;;1753296;80;20286;-85
2021/05/17 10:32:10;;;;;;;;;;;30.40;93.40;;;;;;1782683;79;20457;-85
2021/05/17 10:34:41;;;;;;;;;;;30.40;93.60;;;;;;1760593;80;20187;-85
2021/05/17 10:37:12;;;;;;;;;;;30.40;92.60;;;;;;1716881;82;20196;-85
2021/05/17 10:39:45;;;;;;;;;;;30.40;91.70;;;;;;1693804;83;20458;-84
2021/05/17 10:46:35;;;;;;;;;;;30.50;93.40;;;;;;1704873;83;20255;-84
2021/05/17 10:47:19;;;;;;;;;;;30.50;92.00;;;;;;1708944;81;20147;-83
2021/05/17 10:49:50;;;;;;;;;;;30.60;92.50;;;;;;1741297;81;20250;-84
2021/05/17 10:52:21;;;;;;;;;;;30.60;92.60;;;;;;1727999;82;20146;-84
2021/05/17 10:54:52;;;;;;;;;;;30.60;92.80;;;;;;1726979;82;20454;-85
2021/05/17 10:57:24;;;;;;;;;;;30.60;92.50;;;;;;1771917;80;20378;-85
2021/05/17 11:02:28;;;;;;;;;;;30.70;92.80;;;;;;1749330;81;20199;-82
2021/05/17 11:04:59;;;;;;;;;;;30.70;92.70;;;;;;1753654;80;20323;-84
2021/05/17 11:07:30;;;;;;;;;;;30.70;92.50;;;;;;1765974;80;20123;-82
2021/05/17 11:10:03;;;;;;;;;;;30.70;92.70;;;;;;1754333;81;20801;-83
2021/05/17 11:12:34;;;;;;;;;;;30.70;93.00;;;;;;1756874;81;20139;-82
2021/05/17 11:15:06;;;;;;;;;;;30.70;93.20;;;;;;1751664;81;20131;-91
2021/05/17 11:17:37;;;;;;;;;;;30.70;92.40;;;;;;1745357;81;20164;-89
2021/05/17 11:20:08;;;;;;;;;;;30.70;92.40;;;;;;1721567;82;20866;-91
2021/05/17 11:22:40;;;;;;;;;;;30.70;92.50;;;;;;1740583;81;20292;-90
2021/05/17 11:25:10;;;;;;;;;;;30.70;93.60;;;;;;1751266;81;20260;-90
2021/05/17 11:27:46;;;;;;;;;;;30.70;92.80;;;;;;1744609;81;20716;-90
2021/05/17 11:30:17;;;;;;;;;;;30.70;93.30;;;;;;1727475;81;20255;-91
2021/05/17 11:32:47;;;;;;;;;;;30.70;92.90;;;;;;1725108;82;20301;-91
2021/05/17 11:35:19;;;;;;;;;;;30.70;93.40;;;;;;1754988;81;20181;-92
2021/05/17 11:37:50;;;;;;;;;;;30.70;94.00;;;;;;1759285;81;20185;-91
2021/05/17 11:40:21;;;;;;;;;;;30.60;94.00;;;;;;1766485;81;20192;-91
2021/05/17 11:42:52;;;;;;;;;;;30.60;93.90;;;;;;1759028;80;20137;-92
2021/05/17 11:45:23;;;;;;;;;;;30.60;94.20;;;;;;1744032;81;20260;-90
2021/05/17 11:47:53;;;;;;;;;;;30.60;93.90;;;;;;1741562;81;20183;-92
2021/05/17 11:50:23;;;;;;;;;;;30.60;94.60;;;;;;1748151;81;20203;-91
2021/05/17 11:52:53;;;;;;;;;;;30.50;94.00;;;;;;1746047;80;20140;-91
2021/05/17 11:55:23;;;;;;;;;;;30.50;95.30;;;;;;1703249;83;20142;-91
2021/05/17 11:57:53;;;;;;;;;;;30.50;95.30;;;;;;1724247;82;20136;-91
2021/05/17 12:00:27;;;;;;;;;;;30.50;95.30;;;;;;1733141;81;20242;-90
2021/05/17 12:02:56;;;;;;;;;;;30.50;95.40;;;;;;1721888;81;20209;-91
2021/05/17 12:05:29;;;;;;;;;;;30.50;95.10;;;;;;1709056;82;21009;-92
2021/05/17 12:07:59;;;;;;;;;;;30.40;94.80;;;;;;1747413;81;20164;-93
2021/05/17 12:10:30;;;;;;;;;;;30.30;94.90;;;;;;1740568;81;20205;-92
2021/05/17 12:13:05;;;;;;;;;;;30.40;95.10;;;;;;1742421;81;20191;-91
2021/05/17 12:15:38;;;;;;;;;;;30.30;95.00;;;;;;1755556;80;20151;-91
2021/05/17 12:18:13;;;;;;;;;;;30.30;94.80;;;;;;1741411;81;20238;-91
2021/05/17 12:20:43;;;;;;;;;;;30.40;94.80;;;;;;1739810;81;20459;-91
2021/05/17 12:23:13;;;;;;;;;;;30.40;94.80;;;;;;1747035;82;20192;-91
2021/05/17 12:25:43;;;;;;;;;;;30.40;94.80;;;;;;1736579;81;20207;-91
2021/05/17 12:28:13;;;;;;;;;;;30.40;95.00;;;;;;1726305;82;20191;-89
2021/05/17 12:30:43;;;;;;;;;;;30.40;94.80;;;;;;1735618;80;20223;-91
2021/05/17 12:33:13;;;;;;;;;;;30.40;94.80;;;;;;1725729;82;20196;-91
2021/05/17 12:35:43;;;;;;;;;;;30.50;94.90;;;;;;1731355;81;20191;-88
2021/05/17 12:38:15;;;;;;;;;;;30.40;94.90;;;;;;1756674;81;20222;-90
2021/05/17 12:40:47;;;;;;;;;;;30.40;94.50;;;;;;1704621;83;20208;-91
2021/05/17 12:43:21;;;;;;;;;;;30.50;94.60;;;;;;1695040;83;20153;-90
2021/05/17 12:45:54;;;;;;;;;;;30.50;94.10;;;;;;1712387;83;20226;-92
2021/05/17 12:48:25;;;;;;;;;;;30.50;94.30;;;;;;1708601;83;20247;-83
2021/05/17 12:50:56;;;;;;;;;;;30.60;94.50;;;;;;1743643;81;20171;-80
2021/05/17 12:53:27;;;;;;;;;;;30.60;94.20;;;;;;1717908;83;20254;-81
2021/05/17 12:55:58;;;;;;;;;;;30.60;94.10;;;;;;1709959;83;20151;-81
2021/05/17 12:58:32;;;;;;;;;;;30.60;94.10;;;;;;1713942;83;20129;-82
2021/05/17 13:01:02;;;;;;;;;;;;;;;;;;1694533;83;20139;-89
2021/05/17 13:03:31;;;;;;;;;;;;;;;;;;1726005;79;20108;-89
2021/05/17 13:06:01;;;;;;;;;;;;;;;;;;1733748;80;20143;-90
2021/05/17 13:08:30;;;;;;;;;;;;;;;;;;1724839;80;20144;-89
2021/05/17 13:10:59;;;;;;;;;;;;;;;;;;1716615;83;20159;-88
2021/05/17 13:13:28;;;;;;;;;;;;;;;;;;1721203;83;20218;-88
2021/05/17 13:15:57;;;;;;;;;;;;;;;;;;1718701;83;20273;-88
2021/05/17 13:18:31;;;;;;;;;;;;;;;;;;1691154;83;20708;-90
2021/05/17 13:20:57;;;;;;;;;;;;;;;;;;1721393;82;20207;-90
2021/05/17 13:30:59;;;;;;;;;;;;;;;;;;1703611;83;20220;-89
2021/05/17 13:33:29;;;;;;;;;;;;;;;;;;1716290;82;20210;-88
2021/05/17 13:35:58;;;;;;;;;;;;;;;;;;1710485;83;20210;-89
2021/05/17 13:38:28;;;;;;;;;;;;;;;;;;1711526;83;20240;-89
2021/05/17 13:40:57;;;;;;;;;;;;;;;;;;1746769;80;20191;-88
2021/05/17 13:43:27;;;;;;;;;;;;;;;;;;1739057;81;20143;-88
2021/05/17 13:45:57;;;;;;;;;;;;;;;;;;1750536;81;20236;-87
2021/05/17 13:48:26;;;;;;;;;;;;;;;;;;1761659;81;20186;-88
2021/05/17 13:50:55;;;;;;;;;;;;;;;;;;1750058;81;20167;-87
2021/05/17 13:53:28;;;;;;;;;;;;;;;;;;1745713;81;20177;-88
2021/05/17 13:55:57;;;;;;;;;;;;;;;;;;1761170;80;20234;-87
2021/05/17 13:58:27;;;;;;;;;;;;;;;;;;1728711;81;20486;-89
2021/05/17 14:00:56;;;;;;;;;;;;;;;;;;1731150;81;20148;-88
2021/05/17 14:03:27;;;;;;;;;;;;;;;;;;1735459;81;20205;-89
2021/05/17 14:05:56;;;;;;;;;;;;;;;;;;1734633;81;20238;-89
2021/05/17 14:08:26;;;;;;;;;;;;;;;;;;1758978;81;20296;-89
2021/05/17 14:10:55;;;;;;;;;;;;;;;;;;1754871;81;20216;-89
2021/05/17 14:13:24;;;;;;;;;;;;;;;;;;1742401;81;20172;-86
2021/05/17 14:15:53;;;;;;;;;;;;;;;;;;1740282;81;20167;-89
2021/05/17 14:18:23;;;;;;;;;;;;;;;;;;1732731;81;20281;-87
2021/05/17 14:20:53;;;;;;;;;;;;;;;;;;1722030;82;20149;-89
2021/05/17 14:23:23;;;;;;;;;;;;;;;;;;1738348;82;20426;-89
2021/05/17 14:25:52;;;;;;;;;;;;;;;;;;1728545;81;20164;-89
2021/05/17 14:28:31;;;;;;;;;;;;;;;;;;1698439;80;20262;-90
2021/05/17 14:31:01;;;;;;;;;;;;;;;;;;1756753;81;20190;-89
2021/05/17 14:33:33;;;;;;;;;;;;;;;;;;1742428;81;20182;-88
2021/05/17 14:36:02;;;;;;;;;;;;;;;;;;1755522;81;20194;-89
2021/05/17 14:38:35;;;;;;;;;;;;;;;;;;1752505;81;20165;-90
2021/05/17 14:41:04;;;;;;;;;;;;;;;;;;1742944;81;20239;-88
2021/05/17 14:43:33;;;;;;;;;;;;;;;;;;1749782;81;20191;-88
2021/05/17 14:46:04;;;;;;;;;;;;;;;;;;1746273;81;20215;-89
2021/05/17 14:48:36;;;;;;;;;;;;;;;;;;1745239;81;20171;-89
2021/05/17 14:51:05;;;;;;;;;;;;;;;;;;1744405;81;20556;-88
2021/05/17 14:53:36;;;;;;;;;;;;;;;;;;1738913;80;20186;-88
2021/05/17 14:56:05;;;;;;;;;;;;;;;;;;1744877;81;20594;-88
2021/05/17 14:58:34;;;;;;;;;;;;;;;;;;1756012;81;20509;-88
2021/05/17 15:01:04;;;;;;;;;;;;;;;;;;1746329;81;20488;-89
2021/05/17 15:03:33;;;;;;;;;;;;;;;;;;1747993;81;20189;-88
2021/05/17 15:06:03;;;;;;;;;;;;;;;;;;1748911;81;20215;-88
2021/05/17 15:08:40;;;;;;;;;;;;;;;;;;1742235;81;20394;-88
2021/05/17 15:11:07;;;;;;;;;;;;;;;;;;1736019;81;20597;-87
2021/05/17 15:13:36;;;;;;;;;;;;;;;;;;1742682;81;20187;-88
2021/05/17 15:16:06;;;;;;;;;;;;;;;;;;1743460;81;20226;-88
2021/05/17 15:18:35;;;;;;;;;;;;;;;;;;1733309;82;20206;-89
2021/05/17 15:21:04;;;;;;;;;;;;;;;;;;1749119;81;20807;-89
2021/05/17 15:23:35;;;;;;;;;;;;;;;;;;1743473;80;20199;-88
2021/05/17 15:26:04;;;;;;;;;;;;;;;;;;1748614;81;20212;-89
2021/05/17 15:28:33;;;;;;;;;;;;;;;;;;1743347;82;20212;-89
2021/05/17 15:31:04;;;;;;;;;;;;;;;;;;1746449;81;20171;-90
2021/05/17 15:36:25;;;;;;;;;;;;;;;;;;1760786;81;20096;-90
2021/05/17 15:38:54;;;;;;;;;;;;;;;;;;1764764;80;20226;-89
2021/05/17 15:41:24;;;;;;;;;;;;;;;;;;1756844;81;20731;-89
2021/05/17 15:43:53;;;;;;;;;;;;;;;;;;1754411;81;20190;-89
2021/05/17 15:46:23;;;;;;;;;;;;;;;;;;1750498;81;20370;-88